sensor_id;sensor_type;location;lat;lon;timestamp;noise_LAeq;noise_LA_min;noise_LA_max;noise_LA01;noise_LA95
66335;Laerm;53138;51.496;6.410;2023-11-19T00:00:04;48.40;45.45;51.20;;
66335;Laerm;53138;51.496;6.410;2023-11-19T00:00:21;47.39;43.77;50.46;;
66335;Laerm;53138;51.496;6.410;2023-11-19T00:00:31;47.16;44.17;50.34;;
66335;Laerm;53138;51.496;6.410;2023-11-19T00:00:41;47.65;44.98;50.39;;
66335;Laerm;53138;51.496;6.410;2023-11-19T00:00:51;47.75;45.48;50.22;;
66335;Laerm;53138;51.496;6.410;2023-11-19T00:01:01;47.35;44.39;49.81;;
66335;Laerm;53138;51.496;6.410;2023-11-19T00:01:12;47.50;44.33;53.48;;
66335;Laerm;53138;51.496;6.410;2023-11-19T00:01:22;47.97;45.26;55.44;;
66335;Laerm;53138;51.496;6.410;2023-11-19T00:01:32;47.97;44.71;51.76;;
66335;Laerm;53138;51.496;6.410;2023-11-19T00:01:42;47.61;44.07;52.96;;
66335;Laerm;53138;51.496;6.410;2023-11-19T00:01:52;47.58;44.50;50.72;;
66335;Laerm;53138;51.496;6.410;2023-11-19T00:02:03;47.70;45.23;51.44;;
66335;Laerm;53138;51.496;6.410;2023-11-19T00:02:13;47.55;44.59;49.93;;
66335;Laerm;53138;51.496;6.410;2023-11-19T00:02:23;47.83;45.08;51.05;;
66335;Laerm;53138;51.496;6.410;2023-11-19T00:02:33;46.94;44.76;50.69;;
66335;Laerm;53138;51.496;6.410;2023-11-19T00:02:44;48.33;44.71;58.18;;
66335;Laerm;53138;51.496;6.410;2023-11-19T00:02:54;48.36;45.62;57.97;;
66335;Laerm;53138;51.496;6.410;2023-11-19T00:03:04;47.75;44.40;51.90;;
66335;Laerm;53138;51.496;6.410;2023-11-19T00:03:15;46.77;44.08;50.14;;
66335;Laerm;53138;51.496;6.410;2023-11-19T00:03:25;47.35;44.08;50.56;;
66335;Laerm;53138;51.496;6.410;2023-11-19T00:03:36;47.40;45.13;49.60;;
66335;Laerm;53138;51.496;6.410;2023-11-19T00:03:46;47.90;45.49;54.49;;
66335;Laerm;53138;51.496;6.410;2023-11-19T00:03:57;47.80;45.34;50.38;;
66335;Laerm;53138;51.496;6.410;2023-11-19T00:04:07;47.29;44.07;51.46;;
66335;Laerm;53138;51.496;6.410;2023-11-19T00:04:18;47.11;45.17;49.39;;
66335;Laerm;53138;51.496;6.410;2023-11-19T00:04:28;46.92;44.16;49.59;;
66335;Laerm;53138;51.496;6.410;2023-11-19T00:04:40;47.34;44.67;50.25;;
66335;Laerm;53138;51.496;6.410;2023-11-19T00:04:50;47.30;44.91;50.01;;
66335;Laerm;53138;51.496;6.410;2023-11-19T00:05:00;47.66;44.91;50.58;;
66335;Laerm;53138;51.496;6.410;2023-11-19T00:05:11;47.11;43.96;50.05;;
66335;Laerm;53138;51.496;6.410;2023-11-19T00:05:21;47.53;44.89;50.42;;
66335;Laerm;53138;51.496;6.410;2023-11-19T00:05:31;47.34;44.70;50.29;;
66335;Laerm;53138;51.496;6.410;2023-11-19T00:05:41;46.95;44.48;50.24;;
66335;Laerm;53138;51.496;6.410;2023-11-19T00:05:52;47.13;43.87;50.27;;
66335;Laerm;53138;51.496;6.410;2023-11-19T00:06:02;46.87;44.53;49.80;;
66335;Laerm;53138;51.496;6.410;2023-11-19T00:06:14;46.87;42.92;51.40;;
66335;Laerm;53138;51.496;6.410;2023-11-19T00:06:24;47.37;44.85;50.81;;
66335;Laerm;53138;51.496;6.410;2023-11-19T00:06:35;47.62;44.84;51.22;;
66335;Laerm;53138;51.496;6.410;2023-11-19T00:06:45;47.86;44.96;51.23;;
66335;Laerm;53138;51.496;6.410;2023-11-19T00:06:56;49.03;45.03;52.30;;
66335;Laerm;53138;51.496;6.410;2023-11-19T00:07:12;48.49;43.47;54.71;;
66335;Laerm;53138;51.496;6.410;2023-11-19T00:07:24;46.86;44.19;49.41;;
66335;Laerm;53138;51.496;6.410;2023-11-19T00:07:37;47.45;44.72;50.68;;
66335;Laerm;53138;51.496;6.410;2023-11-19T00:07:51;47.12;44.12;50.88;;
66335;Laerm;53138;51.496;6.410;2023-11-19T00:08:01;46.95;43.97;49.61;;
66335;Laerm;53138;51.496;6.410;2023-11-19T00:08:12;47.69;44.60;50.69;;
66335;Laerm;53138;51.496;6.410;2023-11-19T00:08:22;46.51;42.27;49.77;;
66335;Laerm;53138;51.496;6.410;2023-11-19T00:08:34;46.45;42.73;49.76;;
66335;Laerm;53138;51.496;6.410;2023-11-19T00:08:45;45.94;43.19;49.17;;
66335;Laerm;53138;51.496;6.410;2023-11-19T00:08:55;44.54;40.86;47.78;;
66335;Laerm;53138;51.496;6.410;2023-11-19T00:09:05;44.00;40.46;47.76;;
66335;Laerm;53138;51.496;6.410;2023-11-19T00:09:16;44.31;41.21;47.94;;
66335;Laerm;53138;51.496;6.410;2023-11-19T00:09:28;42.41;38.82;47.78;;
66335;Laerm;53138;51.496;6.410;2023-11-19T00:09:38;41.66;39.40;44.61;;
66335;Laerm;53138;51.496;6.410;2023-11-19T00:09:49;41.69;39.34;44.20;;
66335;Laerm;53138;51.496;6.410;2023-11-19T00:10:00;41.48;40.06;43.48;;
66335;Laerm;53138;51.496;6.410;2023-11-19T00:10:17;42.82;41.10;49.40;;
66335;Laerm;53138;51.496;6.410;2023-11-19T00:10:30;43.72;41.45;53.44;;
66335;Laerm;53138;51.496;6.410;2023-11-19T00:10:41;44.69;42.46;49.75;;
66335;Laerm;53138;51.496;6.410;2023-11-19T00:10:51;45.94;43.09;53.49;;
66335;Laerm;53138;51.496;6.410;2023-11-19T00:11:01;45.95;41.89;55.00;;
66335;Laerm;53138;51.496;6.410;2023-11-19T00:11:13;45.00;41.15;50.80;;
66335;Laerm;53138;51.496;6.410;2023-11-19T00:11:25;43.71;39.84;49.26;;
66335;Laerm;53138;51.496;6.410;2023-11-19T00:11:35;42.63;40.10;46.33;;
66335;Laerm;53138;51.496;6.410;2023-11-19T00:11:46;44.98;42.45;48.29;;
66335;Laerm;53138;51.496;6.410;2023-11-19T00:11:57;45.46;41.50;53.32;;
66335;Laerm;53138;51.496;6.410;2023-11-19T00:12:07;42.39;39.64;50.94;;
66335;Laerm;53138;51.496;6.410;2023-11-19T00:12:18;42.01;40.33;44.20;;
66335;Laerm;53138;51.496;6.410;2023-11-19T00:12:28;43.93;40.49;51.98;;
66335;Laerm;53138;51.496;6.410;2023-11-19T00:12:43;44.45;41.32;49.47;;
66335;Laerm;53138;51.496;6.410;2023-11-19T00:12:54;45.33;40.62;54.91;;
66335;Laerm;53138;51.496;6.410;2023-11-19T00:13:04;41.78;40.00;43.65;;
66335;Laerm;53138;51.496;6.410;2023-11-19T00:13:14;42.34;40.67;47.87;;
66335;Laerm;53138;51.496;6.410;2023-11-19T00:13:25;43.10;40.88;46.63;;
66335;Laerm;53138;51.496;6.410;2023-11-19T00:13:36;42.67;40.82;44.83;;
66335;Laerm;53138;51.496;6.410;2023-11-19T00:13:46;42.89;40.68;53.65;;
66335;Laerm;53138;51.496;6.410;2023-11-19T00:13:56;43.34;40.90;46.97;;
66335;Laerm;53138;51.496;6.410;2023-11-19T00:14:06;42.43;39.74;46.10;;
66335;Laerm;53138;51.496;6.410;2023-11-19T00:14:18;41.54;39.45;45.70;;
66335;Laerm;53138;51.496;6.410;2023-11-19T00:14:28;41.73;39.96;44.67;;
66335;Laerm;53138;51.496;6.410;2023-11-19T00:14:39;42.34;40.59;45.68;;
66335;Laerm;53138;51.496;6.410;2023-11-19T00:14:49;43.31;41.18;48.81;;
66335;Laerm;53138;51.496;6.410;2023-11-19T00:15:01;44.52;42.60;47.31;;
66335;Laerm;53138;51.496;6.410;2023-11-19T00:15:11;46.53;44.65;52.51;;
66335;Laerm;53138;51.496;6.410;2023-11-19T00:15:21;47.19;44.55;55.54;;
66335;Laerm;53138;51.496;6.410;2023-11-19T00:15:31;46.17;43.92;55.80;;
66335;Laerm;53138;51.496;6.410;2023-11-19T00:15:42;44.42;42.09;47.73;;
66335;Laerm;53138;51.496;6.410;2023-11-19T00:15:52;44.06;41.16;49.83;;
66335;Laerm;53138;51.496;6.410;2023-11-19T00:16:03;44.10;42.16;47.93;;
66335;Laerm;53138;51.496;6.410;2023-11-19T00:16:14;43.66;41.61;50.06;;
66335;Laerm;53138;51.496;6.410;2023-11-19T00:16:26;43.03;40.15;50.84;;
66335;Laerm;53138;51.496;6.410;2023-11-19T00:16:36;42.00;40.40;43.55;;
66335;Laerm;53138;51.496;6.410;2023-11-19T00:16:46;42.04;40.13;46.92;;
66335;Laerm;53138;51.496;6.410;2023-11-19T00:16:57;40.75;38.94;43.95;;
66335;Laerm;53138;51.496;6.410;2023-11-19T00:17:07;41.46;39.65;43.29;;
66335;Laerm;53138;51.496;6.410;2023-11-19T00:17:17;44.10;41.21;48.58;;
66335;Laerm;53138;51.496;6.410;2023-11-19T00:17:27;42.98;41.32;49.32;;
66335;Laerm;53138;51.496;6.410;2023-11-19T00:17:38;42.74;40.63;49.14;;
66335;Laerm;53138;51.496;6.410;2023-11-19T00:17:54;42.96;40.64;47.26;;
66335;Laerm;53138;51.496;6.410;2023-11-19T00:18:04;42.91;40.56;50.95;;
66335;Laerm;53138;51.496;6.410;2023-11-19T00:18:15;41.76;39.38;45.20;;
66335;Laerm;53138;51.496;6.410;2023-11-19T00:18:25;41.07;39.40;42.87;;
66335;Laerm;53138;51.496;6.410;2023-11-19T00:18:36;41.75;39.69;44.27;;
66335;Laerm;53138;51.496;6.410;2023-11-19T00:18:46;45.07;41.48;57.98;;
66335;Laerm;53138;51.496;6.410;2023-11-19T00:18:56;45.46;41.90;51.16;;
66335;Laerm;53138;51.496;6.410;2023-11-19T00:19:06;43.44;41.50;47.33;;
66335;Laerm;53138;51.496;6.410;2023-11-19T00:19:18;41.65;39.17;53.01;;
66335;Laerm;53138;51.496;6.410;2023-11-19T00:19:28;41.08;38.92;45.85;;
66335;Laerm;53138;51.496;6.410;2023-11-19T00:19:39;43.00;40.16;58.80;;
66335;Laerm;53138;51.496;6.410;2023-11-19T00:19:49;46.25;41.39;55.87;;
66335;Laerm;53138;51.496;6.410;2023-11-19T00:20:01;45.77;41.10;52.32;;
66335;Laerm;53138;51.496;6.410;2023-11-19T00:20:17;43.72;41.25;51.30;;
66335;Laerm;53138;51.496;6.410;2023-11-19T00:20:27;42.79;40.61;48.81;;
66335;Laerm;53138;51.496;6.410;2023-11-19T00:20:38;46.19;42.02;49.22;;
66335;Laerm;53138;51.496;6.410;2023-11-19T00:20:49;47.88;43.70;53.98;;
66335;Laerm;53138;51.496;6.410;2023-11-19T00:20:59;44.46;41.42;47.18;;
66335;Laerm;53138;51.496;6.410;2023-11-19T00:21:09;42.89;40.73;45.94;;
66335;Laerm;53138;51.496;6.410;2023-11-19T00:21:20;45.63;41.07;52.07;;
66335;Laerm;53138;51.496;6.410;2023-11-19T00:21:30;43.37;40.98;47.00;;
66335;Laerm;53138;51.496;6.410;2023-11-19T00:21:40;44.12;41.25;49.10;;
66335;Laerm;53138;51.496;6.410;2023-11-19T00:21:51;45.14;41.62;50.62;;
66335;Laerm;53138;51.496;6.410;2023-11-19T00:22:01;41.76;39.78;46.01;;
66335;Laerm;53138;51.496;6.410;2023-11-19T00:22:13;41.13;39.03;43.38;;
66335;Laerm;53138;51.496;6.410;2023-11-19T00:22:23;42.51;40.20;45.83;;
66335;Laerm;53138;51.496;6.410;2023-11-19T00:22:34;46.04;41.66;50.37;;
66335;Laerm;53138;51.496;6.410;2023-11-19T00:22:44;45.61;41.81;50.70;;
66335;Laerm;53138;51.496;6.410;2023-11-19T00:22:56;42.87;40.34;47.05;;
66335;Laerm;53138;51.496;6.410;2023-11-19T00:23:06;41.15;39.47;43.73;;
66335;Laerm;53138;51.496;6.410;2023-11-19T00:23:17;41.94;39.94;43.88;;
66335;Laerm;53138;51.496;6.410;2023-11-19T00:23:28;41.17;39.39;42.72;;
66335;Laerm;53138;51.496;6.410;2023-11-19T00:23:38;43.85;40.75;47.95;;
66335;Laerm;53138;51.496;6.410;2023-11-19T00:23:48;43.91;40.71;48.80;;
66335;Laerm;53138;51.496;6.410;2023-11-19T00:23:58;45.36;40.03;52.36;;
66335;Laerm;53138;51.496;6.410;2023-11-19T00:24:09;41.25;39.58;43.34;;
66335;Laerm;53138;51.496;6.410;2023-11-19T00:24:19;41.17;39.67;47.29;;
66335;Laerm;53138;51.496;6.410;2023-11-19T00:24:30;42.12;39.37;44.33;;
66335;Laerm;53138;51.496;6.410;2023-11-19T00:24:40;42.29;40.45;50.75;;
66335;Laerm;53138;51.496;6.410;2023-11-19T00:24:51;44.91;41.44;50.70;;
66335;Laerm;53138;51.496;6.410;2023-11-19T00:25:02;44.15;42.00;55.29;;
66335;Laerm;53138;51.496;6.410;2023-11-19T00:25:13;43.15;40.91;51.02;;
66335;Laerm;53138;51.496;6.410;2023-11-19T00:25:23;42.30;40.25;47.42;;
66335;Laerm;53138;51.496;6.410;2023-11-19T00:25:33;44.27;40.34;53.58;;
66335;Laerm;53138;51.496;6.410;2023-11-19T00:25:44;41.50;39.42;43.61;;
66335;Laerm;53138;51.496;6.410;2023-11-19T00:25:54;41.75;39.69;44.00;;
66335;Laerm;53138;51.496;6.410;2023-11-19T00:26:04;41.19;39.10;43.38;;
66335;Laerm;53138;51.496;6.410;2023-11-19T00:26:16;40.88;39.13;47.24;;
66335;Laerm;53138;51.496;6.410;2023-11-19T00:26:26;40.72;39.14;46.35;;
66335;Laerm;53138;51.496;6.410;2023-11-19T00:26:36;40.42;38.62;42.59;;
66335;Laerm;53138;51.496;6.410;2023-11-19T00:26:46;39.92;38.18;42.43;;
66335;Laerm;53138;51.496;6.410;2023-11-19T00:26:57;39.84;37.83;41.90;;
66335;Laerm;53138;51.496;6.410;2023-11-19T00:27:07;40.06;37.97;41.91;;
66335;Laerm;53138;51.496;6.410;2023-11-19T00:27:18;39.58;36.88;41.40;;
66335;Laerm;53138;51.496;6.410;2023-11-19T00:27:28;40.70;38.08;45.29;;
66335;Laerm;53138;51.496;6.410;2023-11-19T00:27:38;40.17;37.97;42.05;;
66335;Laerm;53138;51.496;6.410;2023-11-19T00:27:49;39.77;37.13;44.75;;
66335;Laerm;53138;51.496;6.410;2023-11-19T00:28:00;39.98;38.00;41.78;;
66335;Laerm;53138;51.496;6.410;2023-11-19T00:28:10;39.95;38.17;41.99;;
66335;Laerm;53138;51.496;6.410;2023-11-19T00:28:21;39.95;38.11;41.87;;
66335;Laerm;53138;51.496;6.410;2023-11-19T00:28:32;39.85;37.82;41.25;;
66335;Laerm;53138;51.496;6.410;2023-11-19T00:28:43;41.59;38.61;53.11;;
66335;Laerm;53138;51.496;6.410;2023-11-19T00:28:53;41.18;39.10;47.45;;
66335;Laerm;53138;51.496;6.410;2023-11-19T00:29:06;40.96;38.41;46.78;;
66335;Laerm;53138;51.496;6.410;2023-11-19T00:29:16;39.93;38.27;43.13;;
66335;Laerm;53138;51.496;6.410;2023-11-19T00:29:28;42.82;38.67;49.10;;
66335;Laerm;53138;51.496;6.410;2023-11-19T00:29:39;43.52;40.03;49.45;;
66335;Laerm;53138;51.496;6.410;2023-11-19T00:29:49;41.69;39.85;44.45;;
66335;Laerm;53138;51.496;6.410;2023-11-19T00:29:59;41.43;39.39;45.96;;
66335;Laerm;53138;51.496;6.410;2023-11-19T00:30:09;40.90;38.84;44.10;;
66335;Laerm;53138;51.496;6.410;2023-11-19T00:30:20;41.29;39.66;45.95;;
66335;Laerm;53138;51.496;6.410;2023-11-19T00:30:30;41.16;39.37;44.70;;
66335;Laerm;53138;51.496;6.410;2023-11-19T00:30:41;41.55;39.21;45.97;;
66335;Laerm;53138;51.496;6.410;2023-11-19T00:30:51;41.67;39.82;43.81;;
66335;Laerm;53138;51.496;6.410;2023-11-19T00:31:02;43.30;41.92;47.46;;
66335;Laerm;53138;51.496;6.410;2023-11-19T00:31:13;41.57;39.40;44.63;;
66335;Laerm;53138;51.496;6.410;2023-11-19T00:31:23;41.36;39.62;46.68;;
66335;Laerm;53138;51.496;6.410;2023-11-19T00:31:33;41.28;39.71;44.21;;
66335;Laerm;53138;51.496;6.410;2023-11-19T00:31:43;42.02;40.50;45.50;;
66335;Laerm;53138;51.496;6.410;2023-11-19T00:31:54;41.72;39.79;45.67;;
66335;Laerm;53138;51.496;6.410;2023-11-19T00:32:04;42.38;40.29;52.28;;
66335;Laerm;53138;51.496;6.410;2023-11-19T00:32:15;42.07;40.04;44.72;;
66335;Laerm;53138;51.496;6.410;2023-11-19T00:32:25;43.64;41.31;47.41;;
66335;Laerm;53138;51.496;6.410;2023-11-19T00:32:36;47.44;43.87;51.45;;
66335;Laerm;53138;51.496;6.410;2023-11-19T00:32:48;48.64;44.18;54.39;;
66335;Laerm;53138;51.496;6.410;2023-11-19T00:32:58;46.20;43.58;51.39;;
66335;Laerm;53138;51.496;6.410;2023-11-19T00:33:09;44.76;40.18;51.35;;
66335;Laerm;53138;51.496;6.410;2023-11-19T00:33:19;41.33;39.18;45.75;;
66335;Laerm;53138;51.496;6.410;2023-11-19T00:33:29;41.12;39.29;44.31;;
66335;Laerm;53138;51.496;6.410;2023-11-19T00:33:39;42.94;39.84;53.78;;
66335;Laerm;53138;51.496;6.410;2023-11-19T00:33:50;42.82;39.89;48.95;;
66335;Laerm;53138;51.496;6.410;2023-11-19T00:34:00;43.44;39.79;53.41;;
66335;Laerm;53138;51.496;6.410;2023-11-19T00:34:11;41.86;38.92;50.73;;
66335;Laerm;53138;51.496;6.410;2023-11-19T00:34:22;41.19;38.49;50.37;;
66335;Laerm;53138;51.496;6.410;2023-11-19T00:34:32;41.10;39.18;44.39;;
66335;Laerm;53138;51.496;6.410;2023-11-19T00:34:45;45.15;41.17;51.08;;
66335;Laerm;53138;51.496;6.410;2023-11-19T00:34:57;42.69;39.13;51.42;;
66335;Laerm;53138;51.496;6.410;2023-11-19T00:35:08;42.52;39.48;46.70;;
66335;Laerm;53138;51.496;6.410;2023-11-19T00:35:20;41.44;39.13;44.87;;
66335;Laerm;53138;51.496;6.410;2023-11-19T00:35:30;40.88;38.39;45.17;;
66335;Laerm;53138;51.496;6.410;2023-11-19T00:35:41;41.09;39.42;45.03;;
66335;Laerm;53138;51.496;6.410;2023-11-19T00:35:52;41.21;38.56;44.13;;
66335;Laerm;53138;51.496;6.410;2023-11-19T00:36:02;40.42;38.64;45.37;;
66335;Laerm;53138;51.496;6.410;2023-11-19T00:36:13;40.83;38.50;53.60;;
66335;Laerm;53138;51.496;6.410;2023-11-19T00:36:23;40.54;38.64;44.88;;
66335;Laerm;53138;51.496;6.410;2023-11-19T00:36:34;39.75;37.33;43.87;;
66335;Laerm;53138;51.496;6.410;2023-11-19T00:36:44;39.88;37.56;43.68;;
66335;Laerm;53138;51.496;6.410;2023-11-19T00:36:54;40.26;37.94;46.22;;
66335;Laerm;53138;51.496;6.410;2023-11-19T00:37:05;42.96;39.02;48.96;;
66335;Laerm;53138;51.496;6.410;2023-11-19T00:37:16;41.49;38.92;47.88;;
66335;Laerm;53138;51.496;6.410;2023-11-19T00:37:27;41.60;38.25;47.18;;
66335;Laerm;53138;51.496;6.410;2023-11-19T00:37:37;39.67;37.87;45.00;;
66335;Laerm;53138;51.496;6.410;2023-11-19T00:37:47;41.94;38.85;47.32;;
66335;Laerm;53138;51.496;6.410;2023-11-19T00:37:58;41.79;38.99;46.38;;
66335;Laerm;53138;51.496;6.410;2023-11-19T00:38:09;41.32;39.24;44.01;;
66335;Laerm;53138;51.496;6.410;2023-11-19T00:38:19;41.67;39.40;51.59;;
66335;Laerm;53138;51.496;6.410;2023-11-19T00:38:29;40.94;39.31;45.44;;
66335;Laerm;53138;51.496;6.410;2023-11-19T00:38:39;41.14;38.95;46.25;;
66335;Laerm;53138;51.496;6.410;2023-11-19T00:38:50;44.05;38.96;49.47;;
66335;Laerm;53138;51.496;6.410;2023-11-19T00:39:00;43.82;41.22;47.66;;
66335;Laerm;53138;51.496;6.410;2023-11-19T00:39:10;45.45;39.93;57.07;;
66335;Laerm;53138;51.496;6.410;2023-11-19T00:39:20;40.95;38.95;47.14;;
66335;Laerm;53138;51.496;6.410;2023-11-19T00:39:31;41.18;39.37;46.11;;
66335;Laerm;53138;51.496;6.410;2023-11-19T00:39:41;41.32;39.25;45.26;;
66335;Laerm;53138;51.496;6.410;2023-11-19T00:39:52;42.05;40.07;45.59;;
66335;Laerm;53138;51.496;6.410;2023-11-19T00:40:02;40.67;38.67;44.95;;
66335;Laerm;53138;51.496;6.410;2023-11-19T00:40:15;40.59;38.01;44.53;;
66335;Laerm;53138;51.496;6.410;2023-11-19T00:40:31;41.46;38.76;45.63;;
66335;Laerm;53138;51.496;6.410;2023-11-19T00:40:42;41.37;38.64;45.14;;
66335;Laerm;53138;51.496;6.410;2023-11-19T00:40:52;39.91;37.21;45.40;;
66335;Laerm;53138;51.496;6.410;2023-11-19T00:41:02;41.34;39.05;46.12;;
66335;Laerm;53138;51.496;6.410;2023-11-19T00:41:13;41.30;38.43;48.27;;
66335;Laerm;53138;51.496;6.410;2023-11-19T00:41:26;40.29;38.20;54.51;;
66335;Laerm;53138;51.496;6.410;2023-11-19T00:41:36;39.22;37.30;44.31;;
66335;Laerm;53138;51.496;6.410;2023-11-19T00:41:47;39.60;37.93;44.09;;
66335;Laerm;53138;51.496;6.410;2023-11-19T00:41:57;39.27;36.95;46.62;;
66335;Laerm;53138;51.496;6.410;2023-11-19T00:42:07;38.90;36.56;43.01;;
66335;Laerm;53138;51.496;6.410;2023-11-19T00:42:18;38.65;36.63;44.63;;
66335;Laerm;53138;51.496;6.410;2023-11-19T00:42:28;38.77;36.58;43.11;;
66335;Laerm;53138;51.496;6.410;2023-11-19T00:42:38;39.24;37.10;43.29;;
66335;Laerm;53138;51.496;6.410;2023-11-19T00:42:48;39.46;37.43;45.01;;
66335;Laerm;53138;51.496;6.410;2023-11-19T00:42:58;41.14;38.35;46.08;;
66335;Laerm;53138;51.496;6.410;2023-11-19T00:43:09;41.16;38.56;45.39;;
66335;Laerm;53138;51.496;6.410;2023-11-19T00:43:19;40.04;37.73;44.50;;
66335;Laerm;53138;51.496;6.410;2023-11-19T00:43:32;40.36;37.72;44.55;;
66335;Laerm;53138;51.496;6.410;2023-11-19T00:43:42;40.55;38.42;44.58;;
66335;Laerm;53138;51.496;6.410;2023-11-19T00:43:53;40.65;38.65;44.75;;
66335;Laerm;53138;51.496;6.410;2023-11-19T00:44:03;41.79;38.81;46.36;;
66335;Laerm;53138;51.496;6.410;2023-11-19T00:44:13;42.86;39.79;49.12;;
66335;Laerm;53138;51.496;6.410;2023-11-19T00:44:23;44.58;38.67;52.61;;
66335;Laerm;53138;51.496;6.410;2023-11-19T00:44:34;39.29;36.56;45.21;;
66335;Laerm;53138;51.496;6.410;2023-11-19T00:44:44;38.91;36.93;43.81;;
66335;Laerm;53138;51.496;6.410;2023-11-19T00:44:55;39.07;37.09;44.28;;
66335;Laerm;53138;51.496;6.410;2023-11-19T00:45:05;39.10;36.85;44.31;;
66335;Laerm;53138;51.496;6.410;2023-11-19T00:45:19;39.32;37.46;44.49;;
66335;Laerm;53138;51.496;6.410;2023-11-19T00:45:30;39.31;37.26;44.51;;
66335;Laerm;53138;51.496;6.410;2023-11-19T00:45:40;38.89;36.75;44.56;;
66335;Laerm;53138;51.496;6.410;2023-11-19T00:45:50;39.66;36.59;48.34;;
66335;Laerm;53138;51.496;6.410;2023-11-19T00:46:00;38.65;36.17;43.98;;
66335;Laerm;53138;51.496;6.410;2023-11-19T00:46:11;39.20;37.10;46.11;;
66335;Laerm;53138;51.496;6.410;2023-11-19T00:46:21;39.59;36.99;46.39;;
66335;Laerm;53138;51.496;6.410;2023-11-19T00:46:31;39.12;36.96;44.32;;
66335;Laerm;53138;51.496;6.410;2023-11-19T00:46:42;40.91;38.30;48.34;;
66335;Laerm;53138;51.496;6.410;2023-11-19T00:46:52;41.74;38.07;53.48;;
66335;Laerm;53138;51.496;6.410;2023-11-19T00:47:03;41.69;38.13;52.56;;
66335;Laerm;53138;51.496;6.410;2023-11-19T00:47:13;40.01;37.70;45.20;;
66335;Laerm;53138;51.496;6.410;2023-11-19T00:47:23;39.79;37.62;44.45;;
66335;Laerm;53138;51.496;6.410;2023-11-19T00:47:33;41.02;38.02;45.18;;
66335;Laerm;53138;51.496;6.410;2023-11-19T00:47:45;42.89;39.21;47.54;;
66335;Laerm;53138;51.496;6.410;2023-11-19T00:47:55;43.52;38.90;49.72;;
66335;Laerm;53138;51.496;6.410;2023-11-19T00:48:05;39.79;37.52;44.94;;
66335;Laerm;53138;51.496;6.410;2023-11-19T00:48:16;40.78;38.48;44.77;;
66335;Laerm;53138;51.496;6.410;2023-11-19T00:48:27;40.32;38.08;45.64;;
66335;Laerm;53138;51.496;6.410;2023-11-19T00:48:38;39.19;36.72;45.25;;
66335;Laerm;53138;51.496;6.410;2023-11-19T00:48:48;39.12;37.24;42.52;;
66335;Laerm;53138;51.496;6.410;2023-11-19T00:48:59;39.01;37.03;43.56;;
66335;Laerm;53138;51.496;6.410;2023-11-19T00:49:11;39.47;37.19;44.54;;
66335;Laerm;53138;51.496;6.410;2023-11-19T00:49:21;39.56;37.33;44.27;;
66335;Laerm;53138;51.496;6.410;2023-11-19T00:49:32;41.61;38.46;48.03;;
66335;Laerm;53138;51.496;6.410;2023-11-19T00:49:42;42.50;39.49;51.62;;
66335;Laerm;53138;51.496;6.410;2023-11-19T00:49:53;43.17;40.92;46.76;;
66335;Laerm;53138;51.496;6.410;2023-11-19T00:50:03;46.88;39.62;60.97;;
66335;Laerm;53138;51.496;6.410;2023-11-19T00:50:13;42.48;39.30;46.75;;
66335;Laerm;53138;51.496;6.410;2023-11-19T00:50:24;41.37;37.73;45.01;;
66335;Laerm;53138;51.496;6.410;2023-11-19T00:50:34;39.73;38.03;43.05;;
66335;Laerm;53138;51.496;6.410;2023-11-19T00:50:44;40.62;37.74;46.48;;
66335;Laerm;53138;51.496;6.410;2023-11-19T00:50:55;44.28;40.03;53.67;;
66335;Laerm;53138;51.496;6.410;2023-11-19T00:51:06;43.62;39.84;51.66;;
66335;Laerm;53138;51.496;6.410;2023-11-19T00:51:16;40.26;37.62;44.63;;
66335;Laerm;53138;51.496;6.410;2023-11-19T00:51:26;39.95;37.84;45.04;;
66335;Laerm;53138;51.496;6.410;2023-11-19T00:51:36;40.04;38.44;44.42;;
66335;Laerm;53138;51.496;6.410;2023-11-19T00:51:46;40.32;38.31;44.91;;
66335;Laerm;53138;51.496;6.410;2023-11-19T00:51:57;40.01;38.47;43.66;;
66335;Laerm;53138;51.496;6.410;2023-11-19T00:52:07;39.39;37.30;43.96;;
66335;Laerm;53138;51.496;6.410;2023-11-19T00:52:17;39.08;37.08;45.03;;
66335;Laerm;53138;51.496;6.410;2023-11-19T00:52:28;39.85;38.00;44.35;;
66335;Laerm;53138;51.496;6.410;2023-11-19T00:52:38;40.30;38.71;43.42;;
66335;Laerm;53138;51.496;6.410;2023-11-19T00:52:49;39.69;37.54;43.92;;
66335;Laerm;53138;51.496;6.410;2023-11-19T00:52:59;40.42;38.04;46.41;;
66335;Laerm;53138;51.496;6.410;2023-11-19T00:53:09;43.31;38.68;48.26;;
66335;Laerm;53138;51.496;6.410;2023-11-19T00:53:20;41.26;39.00;45.59;;
66335;Laerm;53138;51.496;6.410;2023-11-19T00:53:30;40.54;38.78;44.53;;
66335;Laerm;53138;51.496;6.410;2023-11-19T00:53:40;40.27;37.85;43.99;;
66335;Laerm;53138;51.496;6.410;2023-11-19T00:53:50;39.38;37.59;43.94;;
66335;Laerm;53138;51.496;6.410;2023-11-19T00:54:00;39.29;37.12;43.94;;
66335;Laerm;53138;51.496;6.410;2023-11-19T00:54:11;39.64;37.26;45.14;;
66335;Laerm;53138;51.496;6.410;2023-11-19T00:54:21;39.48;37.60;45.12;;
66335;Laerm;53138;51.496;6.410;2023-11-19T00:54:31;39.63;37.31;52.81;;
66335;Laerm;53138;51.496;6.410;2023-11-19T00:54:42;39.28;37.13;43.49;;
66335;Laerm;53138;51.496;6.410;2023-11-19T00:54:52;38.74;36.81;43.14;;
66335;Laerm;53138;51.496;6.410;2023-11-19T00:55:03;39.05;36.81;44.32;;
66335;Laerm;53138;51.496;6.410;2023-11-19T00:55:14;38.80;36.39;43.67;;
66335;Laerm;53138;51.496;6.410;2023-11-19T00:55:24;39.37;37.43;43.62;;
66335;Laerm;53138;51.496;6.410;2023-11-19T00:55:34;39.65;37.32;44.91;;
66335;Laerm;53138;51.496;6.410;2023-11-19T00:55:44;41.64;39.23;47.41;;
66335;Laerm;53138;51.496;6.410;2023-11-19T00:55:54;40.85;37.98;46.70;;
66335;Laerm;53138;51.496;6.410;2023-11-19T00:56:05;39.82;37.96;46.37;;
66335;Laerm;53138;51.496;6.410;2023-11-19T00:56:15;39.57;37.26;44.27;;
66335;Laerm;53138;51.496;6.410;2023-11-19T00:56:27;39.16;36.70;44.06;;
66335;Laerm;53138;51.496;6.410;2023-11-19T00:56:38;38.88;36.54;44.51;;
66335;Laerm;53138;51.496;6.410;2023-11-19T00:56:48;42.29;37.66;48.87;;
66335;Laerm;53138;51.496;6.410;2023-11-19T00:56:58;45.52;41.33;50.75;;
66335;Laerm;53138;51.496;6.410;2023-11-19T00:57:09;46.70;42.07;52.46;;
66335;Laerm;53138;51.496;6.410;2023-11-19T00:57:19;45.29;41.58;50.33;;
66335;Laerm;53138;51.496;6.410;2023-11-19T00:57:32;40.69;37.28;44.85;;
66335;Laerm;53138;51.496;6.410;2023-11-19T00:57:42;39.50;37.60;42.97;;
66335;Laerm;53138;51.496;6.410;2023-11-19T00:57:53;38.83;36.17;43.79;;
66335;Laerm;53138;51.496;6.410;2023-11-19T00:58:03;39.21;37.03;43.96;;
66335;Laerm;53138;51.496;6.410;2023-11-19T00:58:13;39.60;38.03;43.68;;
66335;Laerm;53138;51.496;6.410;2023-11-19T00:58:23;39.74;37.82;44.18;;
66335;Laerm;53138;51.496;6.410;2023-11-19T00:58:34;39.81;37.75;48.53;;
66335;Laerm;53138;51.496;6.410;2023-11-19T00:58:44;39.29;37.70;43.66;;
66335;Laerm;53138;51.496;6.410;2023-11-19T00:58:55;39.47;37.58;43.68;;
66335;Laerm;53138;51.496;6.410;2023-11-19T00:59:05;42.92;39.30;47.88;;
66335;Laerm;53138;51.496;6.410;2023-11-19T00:59:16;40.54;38.79;45.98;;
66335;Laerm;53138;51.496;6.410;2023-11-19T00:59:26;41.01;39.22;44.50;;
66335;Laerm;53138;51.496;6.410;2023-11-19T00:59:37;40.27;38.51;44.51;;
66335;Laerm;53138;51.496;6.410;2023-11-19T00:59:47;39.99;38.21;44.70;;